Time;durP1;ratioP1;P1;durP2;ratioP2;P2;SDS_P1;SDS_P2;PMS_P1;PMS_P2;Temp;Humidity;BMP_temperature;BMP_pressure;BME280_temperature;BME280_humidity;BME280_pressure;Samples;Min_cycle;Max_cycle;Signal;HPM_P1;HPM_P2
2024/02/26 00:00:35;;;;;;;14.80;9.95;;;5.10;99.90;;;;;;5025913;28;20036;-67
2024/02/26 00:03:01;;;;;;;15.93;10.18;;;5.00;99.90;;;;;;5028571;28;20037;-67
2024/02/26 00:05:27;;;;;;;15.07;10.38;;;5.00;99.90;;;;;;5050517;28;20033;-66
2024/02/26 00:07:53;;;;;;;18.65;10.38;;;5.00;99.90;;;;;;5051303;28;20029;-67
2024/02/26 00:10:19;;;;;;;16.65;10.75;;;5.00;99.90;;;;;;5033013;28;20118;-69
2024/02/26 00:12:44;;;;;;;17.42;10.95;;;5.00;99.90;;;;;;5049835;28;20029;-67
2024/02/26 00:15:10;;;;;;;16.52;10.05;;;5.00;99.90;;;;;;5051405;28;20064;-67
2024/02/26 00:17:36;;;;;;;17.65;11.32;;;5.10;99.90;;;;;;5033878;28;20488;-67
2024/02/26 00:20:09;;;;;;;16.60;11.23;;;5.00;99.90;;;;;;5049768;28;20409;-67
2024/02/26 00:22:36;;;;;;;17.08;11.02;;;5.00;99.90;;;;;;5051407;28;20059;-67
2024/02/26 00:25:02;;;;;;;15.88;11.05;;;5.00;99.90;;;;;;5050834;28;20068;-67
2024/02/26 00:27:27;;;;;;;16.98;11.00;;;5.00;99.90;;;;;;5048093;28;20501;-68
2024/02/26 00:29:53;;;;;;;19.88;11.88;;;5.10;99.90;;;;;;5029705;28;20133;-67
2024/02/26 00:32:19;;;;;;;18.17;11.95;;;5.00;99.90;;;;;;5050081;28;20033;-68
2024/02/26 00:34:44;;;;;;;17.70;11.25;;;5.00;99.90;;;;;;5046563;28;20033;-68
2024/02/26 00:37:10;;;;;;;19.60;11.63;;;5.00;99.90;;;;;;5041553;28;20086;-67
2024/02/26 00:39:35;;;;;;;19.17;12.00;;;5.00;99.90;;;;;;5049014;28;20059;-67
2024/02/26 00:42:01;;;;;;;19.42;11.55;;;5.00;99.90;;;;;;5046588;28;20037;-67
2024/02/26 00:44:26;;;;;;;18.45;10.90;;;5.00;99.90;;;;;;5050802;28;20039;-67
2024/02/26 00:46:52;;;;;;;17.77;11.65;;;4.90;99.90;;;;;;5049456;28;20029;-67
2024/02/26 00:49:18;;;;;;;16.35;11.23;;;5.00;99.90;;;;;;5031619;28;20067;-67
2024/02/26 00:51:43;;;;;;;17.77;10.82;;;4.90;99.90;;;;;;5016458;28;20037;-68
2024/02/26 00:54:09;;;;;;;15.43;10.35;;;4.90;99.90;;;;;;5032552;28;20049;-67
2024/02/26 00:56:35;;;;;;;16.90;11.27;;;4.90;99.90;;;;;;5045581;28;20060;-67
2024/02/26 00:59:01;;;;;;;19.02;11.23;;;4.90;99.90;;;;;;5030271;28;20478;-67
2024/02/26 01:01:27;;;;;;;19.48;11.55;;;5.10;99.90;;;;;;5027979;28;20040;-67
2024/02/26 01:03:52;;;;;;;17.52;11.15;;;5.00;99.90;;;;;;5050465;28;20071;-67
2024/02/26 01:06:18;;;;;;;19.30;11.63;;;4.90;99.90;;;;;;5048106;28;21325;-67
2024/02/26 01:08:44;;;;;;;18.45;11.63;;;4.90;99.90;;;;;;5047322;28;20075;-67
2024/02/26 01:11:09;;;;;;;18.00;11.25;;;4.90;99.90;;;;;;5049493;28;20037;-67
2024/02/26 01:13:35;;;;;;;17.65;11.35;;;4.90;99.90;;;;;;5048875;28;20462;-67
2024/02/26 01:16:01;;;;;;;19.65;11.57;;;5.00;99.90;;;;;;5043324;28;20029;-67
2024/02/26 01:18:27;;;;;;;18.30;11.60;;;4.90;99.90;;;;;;5032029;28;20485;-67
2024/02/26 01:20:54;;;;;;;17.77;10.85;;;4.90;99.90;;;;;;5028480;28;20065;-67
2024/02/26 01:23:20;;;;;;;17.52;11.02;;;4.90;99.90;;;;;;5029218;28;20378;-67
2024/02/26 01:25:46;;;;;;;16.75;11.18;;;4.90;99.90;;;;;;5048485;28;20033;-68
2024/02/26 01:28:11;;;;;;;16.17;10.40;;;4.90;99.90;;;;;;5050257;28;21420;-68
2024/02/26 01:30:37;;;;;;;19.20;11.63;;;4.90;99.90;;;;;;5029110;28;20208;-67
2024/02/26 01:33:03;;;;;;;17.65;11.20;;;4.90;99.90;;;;;;5047979;28;20041;-66
2024/02/26 01:35:29;;;;;;;17.17;11.02;;;4.90;99.90;;;;;;5048875;28;20082;-68
2024/02/26 01:37:55;;;;;;;19.58;12.00;;;4.90;99.90;;;;;;5032271;28;20447;-67
2024/02/26 01:40:21;;;;;;;22.85;12.05;;;4.90;99.90;;;;;;5030046;28;20516;-66
2024/02/26 01:42:48;;;;;;;19.05;11.38;;;4.90;99.90;;;;;;5048598;28;20040;-67
2024/02/26 01:45:26;;;;;;;17.17;11.18;;;4.90;99.90;;;;;;5028539;28;20045;-67
2024/02/26 01:47:52;;;;;;;20.27;11.50;;;4.90;99.90;;;;;;5032520;28;20040;-67
2024/02/26 01:50:19;;;;;;;16.88;11.15;;;4.90;99.90;;;;;;5045175;28;20040;-67
2024/02/26 01:52:47;;;;;;;18.15;11.23;;;4.90;99.90;;;;;;5051864;28;20037;-67
2024/02/26 01:55:14;;;;;;;20.67;11.98;;;4.90;99.90;;;;;;5053438;28;20048;-67
2024/02/26 01:57:45;;;;;;;17.40;11.30;;;4.90;99.90;;;;;;5050470;28;20061;-67
2024/02/26 02:00:11;;;;;;;18.38;11.38;;;4.90;99.90;;;;;;5035738;28;20047;-67
2024/02/26 02:02:38;;;;;;;17.58;11.18;;;4.90;99.90;;;;;;5052286;28;20033;-67
2024/02/26 02:05:05;;;;;;;18.02;11.80;;;4.90;99.90;;;;;;5017759;28;20045;-67
2024/02/26 02:07:32;;;;;;;19.10;12.00;;;4.90;99.90;;;;;;5036137;28;20052;-67
2024/02/26 02:09:58;;;;;;;17.95;10.65;;;4.90;99.90;;;;;;5032564;28;20041;-67
2024/02/26 02:12:24;;;;;;;20.13;12.27;;;4.90;99.90;;;;;;5047957;28;20024;-67
2024/02/26 02:14:50;;;;;;;18.60;11.65;;;4.90;99.90;;;;;;5050696;28;20041;-67
2024/02/26 02:17:15;;;;;;;19.75;11.95;;;4.90;99.90;;;;;;5049284;28;20071;-67
2024/02/26 02:19:41;;;;;;;19.17;11.82;;;4.90;99.90;;;;;;5052788;28;20033;-67
2024/02/26 02:22:07;;;;;;;19.90;11.13;;;4.80;99.90;;;;;;5050721;28;20041;-67
2024/02/26 02:24:32;;;;;;;18.23;11.55;;;4.80;99.90;;;;;;5043319;28;20037;-67
2024/02/26 02:26:58;;;;;;;17.15;10.65;;;4.90;99.90;;;;;;5031276;28;20509;-67
2024/02/26 02:29:24;;;;;;;19.90;11.68;;;4.90;99.90;;;;;;5030451;28;20040;-67
2024/02/26 02:31:50;;;;;;;19.73;11.80;;;4.80;99.90;;;;;;5044653;28;20120;-67
2024/02/26 02:34:16;;;;;;;18.95;11.48;;;4.80;99.90;;;;;;5044991;28;20036;-67
2024/02/26 02:36:52;;;;;;;16.38;10.65;;;4.90;99.90;;;;;;5031636;28;20033;-67
2024/02/26 02:39:17;;;;;;;20.83;11.90;;;4.80;99.90;;;;;;5026625;28;20083;-67
2024/02/26 02:41:43;;;;;;;19.27;11.88;;;4.90;99.90;;;;;;5049798;28;20436;-67
2024/02/26 02:44:09;;;;;;;19.15;11.95;;;4.80;99.90;;;;;;5049172;28;20370;-67
2024/02/26 02:46:35;;;;;;;19.40;11.60;;;4.80;99.90;;;;;;5050167;28;20044;-67
2024/02/26 02:49:01;;;;;;;19.23;12.15;;;4.80;99.90;;;;;;5052549;28;20033;-67
2024/02/26 02:51:26;;;;;;;20.63;12.90;;;4.80;99.90;;;;;;5030587;28;20044;-67
2024/02/26 02:53:52;;;;;;;21.70;12.90;;;4.80;99.90;;;;;;5051863;28;20036;-66
2024/02/26 02:56:18;;;;;;;19.52;12.23;;;4.80;99.90;;;;;;5035117;28;20044;-67
2024/02/26 02:58:44;;;;;;;22.20;12.48;;;4.80;99.90;;;;;;5031349;28;20048;-67
2024/02/26 03:01:09;;;;;;;20.80;12.23;;;4.80;99.90;;;;;;5051108;28;20124;-67
2024/02/26 03:03:36;;;;;;;22.63;13.30;;;4.90;99.90;;;;;;5043363;28;20047;-67
2024/02/26 03:06:02;;;;;;;22.40;13.77;;;4.80;99.90;;;;;;5048987;28;20049;-67
2024/02/26 03:08:28;;;;;;;28.73;14.20;;;4.80;99.90;;;;;;5034422;28;20136;-67
2024/02/26 03:10:54;;;;;;;24.55;13.73;;;4.80;99.90;;;;;;5032522;28;20045;-67
2024/02/26 03:13:20;;;;;;;24.77;14.02;;;4.80;99.90;;;;;;5052560;28;20025;-67
2024/02/26 03:15:46;;;;;;;28.10;14.38;;;4.80;99.90;;;;;;5052498;28;20041;-67
2024/02/26 03:18:11;;;;;;;33.13;14.55;;;4.80;99.90;;;;;;5052461;28;21779;-67
2024/02/26 03:20:37;;;;;;;27.13;14.00;;;4.80;99.90;;;;;;5051419;28;20442;-67
2024/02/26 03:23:03;;;;;;;30.35;15.35;;;4.80;99.90;;;;;;5034562;28;20559;-67
2024/02/26 03:25:29;;;;;;;28.25;15.02;;;4.80;99.90;;;;;;5031855;28;20142;-67
2024/02/26 03:27:54;;;;;;;30.17;15.48;;;4.90;99.90;;;;;;5052048;28;20037;-67
2024/02/26 03:30:20;;;;;;;32.28;15.65;;;4.80;99.90;;;;;;5051774;28;20044;-67
2024/02/26 03:32:47;;;;;;;30.30;15.52;;;4.90;99.90;;;;;;5050211;28;20032;-67
2024/02/26 03:35:13;;;;;;;26.90;14.77;;;4.80;99.90;;;;;;5043371;28;20140;-67
2024/02/26 03:37:38;;;;;;;28.80;15.43;;;4.90;99.90;;;;;;5050815;28;20128;-67
2024/02/26 03:40:05;;;;;;;30.65;15.73;;;4.80;99.90;;;;;;5031464;28;20036;-66
2024/02/26 03:42:31;;;;;;;30.95;16.15;;;4.80;99.90;;;;;;5051769;28;20489;-67
2024/02/26 03:44:57;;;;;;;30.75;15.93;;;4.90;99.90;;;;;;5051487;28;20059;-67
2024/02/26 03:47:22;;;;;;;29.38;15.77;;;4.80;99.90;;;;;;5033844;28;20087;-67
2024/02/26 03:49:48;;;;;;;31.25;16.35;;;4.80;99.90;;;;;;5060231;22;20044;-78
2024/02/26 03:52:14;;;;;;;31.88;16.42;;;4.80;99.90;;;;;;5054194;28;20379;-78
2024/02/26 03:54:40;;;;;;;29.85;15.57;;;4.90;99.90;;;;;;5054098;28;20036;-78
2024/02/26 03:57:06;;;;;;;30.45;15.82;;;4.90;99.90;;;;;;5072249;28;20051;-79
2024/02/26 03:59:31;;;;;;;31.75;16.77;;;4.90;99.90;;;;;;5024422;28;20124;-78
2024/02/26 04:01:57;;;;;;;34.85;17.38;;;4.80;99.90;;;;;;5032963;28;20059;-78
2024/02/26 04:04:22;;;;;;;32.47;17.23;;;4.90;99.90;;;;;;5034443;28;20072;-78
2024/02/26 04:06:48;;;;;;;33.80;18.20;;;4.80;99.90;;;;;;5034602;28;20106;-78
2024/02/26 04:09:14;;;;;;;33.88;17.98;;;4.80;99.90;;;;;;5033519;28;20032;-78
2024/02/26 04:11:40;;;;;;;31.45;17.58;;;4.80;99.90;;;;;;5033539;28;20602;-78
2024/02/26 04:14:08;;;;;;;34.83;18.33;;;4.80;99.90;;;;;;5034290;28;20072;-78
2024/02/26 04:16:35;;;;;;;35.65;17.58;;;4.90;99.90;;;;;;5052058;28;20033;-78
2024/02/26 04:19:01;;;;;;;33.88;18.65;;;5.00;99.90;;;;;;5032496;28;20403;-78
2024/02/26 04:21:26;;;;;;;36.78;19.00;;;4.80;99.90;;;;;;5051031;28;20043;-78
2024/02/26 04:23:55;;;;;;;35.90;18.25;;;4.90;99.90;;;;;;5017116;28;20033;-79
2024/02/26 04:26:21;;;;;;;36.28;18.55;;;4.80;99.90;;;;;;5033505;28;20467;-78
2024/02/26 04:28:47;;;;;;;34.22;18.27;;;4.80;99.90;;;;;;5051661;28;20406;-78
2024/02/26 04:31:12;;;;;;;35.92;18.30;;;4.90;99.90;;;;;;5033013;28;20041;-78
2024/02/26 04:33:38;;;;;;;35.10;18.17;;;4.80;99.90;;;;;;5033764;28;20044;-78
2024/02/26 04:36:04;;;;;;;40.05;19.58;;;4.80;99.90;;;;;;5033552;28;20483;-78
2024/02/26 04:38:30;;;;;;;36.58;19.63;;;4.80;99.90;;;;;;5051699;28;20025;-78
2024/02/26 04:40:55;;;;;;;35.60;19.45;;;4.80;99.90;;;;;;5050852;28;20550;-78
2024/02/26 04:43:21;;;;;;;36.92;18.85;;;4.80;99.90;;;;;;5051466;28;20464;-78
2024/02/26 04:45:46;;;;;;;35.25;19.45;;;4.80;99.90;;;;;;5016700;28;20040;-79
2024/02/26 04:48:12;;;;;;;33.33;18.63;;;4.90;99.90;;;;;;5033292;28;20372;-79
2024/02/26 04:50:38;;;;;;;37.70;20.20;;;4.80;99.90;;;;;;5033212;28;20067;-78
2024/02/26 04:53:03;;;;;;;37.78;19.60;;;4.90;99.90;;;;;;5050643;28;20041;-78
2024/02/26 04:55:29;;;;;;;36.60;19.50;;;4.90;99.90;;;;;;5033474;28;20025;-78
2024/02/26 04:57:55;;;;;;;37.08;20.85;;;5.00;99.90;;;;;;5051251;28;20120;-78
2024/02/26 05:00:22;;;;;;;35.40;19.75;;;4.90;99.90;;;;;;5016299;28;20040;-78
2024/02/26 05:02:47;;;;;;;37.08;19.95;;;4.90;99.90;;;;;;5031045;28;20048;-78
2024/02/26 05:05:13;;;;;;;36.03;19.40;;;4.90;99.90;;;;;;5032553;28;20033;-78
2024/02/26 05:07:43;;;;;;;37.63;19.95;;;4.90;99.90;;;;;;5033210;28;20040;-79
2024/02/26 05:10:09;;;;;;;36.50;19.02;;;4.90;99.90;;;;;;5032792;28;20424;-78
2024/02/26 05:12:35;;;;;;;36.03;18.40;;;4.90;99.90;;;;;;5032116;28;20037;-78
2024/02/26 05:15:02;;;;;;;36.00;19.25;;;4.90;99.90;;;;;;5048442;28;20048;-78
2024/02/26 05:17:28;;;;;;;37.55;18.92;;;4.90;99.90;;;;;;5015353;28;20119;-78
2024/02/26 05:19:53;;;;;;;33.85;18.17;;;4.90;99.90;;;;;;5050500;28;20137;-78
2024/02/26 05:22:19;;;;;;;32.25;17.83;;;5.00;99.90;;;;;;5032225;28;20040;-78
2024/02/26 05:24:44;;;;;;;34.80;18.27;;;5.00;99.90;;;;;;5050859;28;20032;-78
2024/02/26 05:27:10;;;;;;;32.00;18.45;;;5.00;99.90;;;;;;5033176;28;20032;-78
2024/02/26 05:29:36;;;;;;;33.35;18.08;;;5.00;99.90;;;;;;5015886;28;20037;-78
2024/02/26 05:32:02;;;;;;;34.67;17.85;;;5.00;99.90;;;;;;5033361;28;20045;-79
2024/02/26 05:34:27;;;;;;;30.15;17.85;;;5.00;99.90;;;;;;5049250;28;20494;-79
2024/02/26 05:36:53;;;;;;;33.50;18.00;;;5.00;99.90;;;;;;5031904;28;20434;-78
2024/02/26 05:39:19;;;;;;;29.75;16.38;;;5.00;99.90;;;;;;5032656;28;20060;-78
2024/02/26 05:41:44;;;;;;;26.75;15.48;;;5.00;99.90;;;;;;5033204;28;20063;-78
2024/02/26 05:44:11;;;;;;;28.52;15.57;;;5.00;99.90;;;;;;5050311;28;20384;-78
2024/02/26 05:46:37;;;;;;;25.23;15.38;;;5.00;99.90;;;;;;5050364;28;20045;-78
2024/02/26 05:49:02;;;;;;;25.60;14.57;;;5.00;99.90;;;;;;5032297;28;20465;-78
2024/02/26 05:51:28;;;;;;;22.83;14.10;;;5.00;99.90;;;;;;5050047;28;20480;-78
2024/02/26 05:53:54;;;;;;;23.58;13.70;;;5.00;99.90;;;;;;5032802;28;20045;-78
2024/02/26 05:56:23;;;;;;;21.73;12.75;;;5.00;99.90;;;;;;5032119;28;20108;-79
2024/02/26 05:58:49;;;;;;;21.60;11.82;;;5.00;99.90;;;;;;5050329;28;20092;-79
2024/02/26 06:01:18;;;;;;;20.25;11.90;;;5.00;99.90;;;;;;5032660;28;20037;-77
2024/02/26 06:03:44;;;;;;;21.58;11.88;;;5.00;99.90;;;;;;5028641;28;20435;-78
2024/02/26 06:06:15;;;;;;;18.15;11.27;;;5.00;99.90;;;;;;5044181;28;20577;-77
2024/02/26 06:08:40;;;;;;;16.55;10.32;;;5.00;99.90;;;;;;5031850;28;20094;-77
2024/02/26 06:11:07;;;;;;;16.33;10.23;;;5.00;99.90;;;;;;5032007;28;20045;-78
2024/02/26 06:13:33;;;;;;;18.05;9.98;;;5.00;99.90;;;;;;5016143;28;20060;-77
2024/02/26 06:15:59;;;;;;;17.33;9.88;;;5.00;99.90;;;;;;5031548;28;20068;-78
2024/02/26 06:18:24;;;;;;;17.58;10.57;;;4.90;99.90;;;;;;5032676;28;20140;-78
2024/02/26 06:20:50;;;;;;;16.38;9.25;;;5.00;99.90;;;;;;5049815;28;20406;-78
2024/02/26 06:23:16;;;;;;;16.48;10.68;;;5.00;99.90;;;;;;5032400;28;20107;-78
2024/02/26 06:25:42;;;;;;;15.27;9.02;;;4.90;99.90;;;;;;5031766;28;20128;-78
2024/02/26 06:28:08;;;;;;;16.30;9.32;;;5.00;99.90;;;;;;5050198;28;20044;-78
2024/02/26 06:30:34;;;;;;;17.08;9.50;;;5.00;99.90;;;;;;5052872;28;20078;-78
2024/02/26 06:33:00;;;;;;;16.42;9.73;;;4.90;99.90;;;;;;5036298;28;20108;-78
2024/02/26 06:35:26;;;;;;;15.25;9.15;;;4.90;99.90;;;;;;5052606;28;20025;-78
2024/02/26 06:37:52;;;;;;;19.35;9.43;;;4.90;99.90;;;;;;5034991;28;20095;-78
2024/02/26 06:40:19;;;;;;;15.13;8.98;;;4.90;99.90;;;;;;5035478;28;20120;-78
2024/02/26 06:42:44;;;;;;;16.02;9.35;;;4.90;99.90;;;;;;5054156;28;20037;-78
2024/02/26 06:45:10;;;;;;;17.17;9.82;;;4.90;99.90;;;;;;5035348;28;20041;-78
2024/02/26 06:47:36;;;;;;;15.85;9.25;;;4.90;99.90;;;;;;5049570;28;20044;-77
2024/02/26 06:50:02;;;;;;;14.90;9.13;;;4.90;99.90;;;;;;5032484;28;20120;-78
2024/02/26 06:52:28;;;;;;;14.70;8.77;;;4.90;99.90;;;;;;5050724;28;20112;-78
2024/02/26 06:54:54;;;;;;;14.05;8.32;;;4.90;99.90;;;;;;5035086;28;20550;-78
2024/02/26 06:57:20;;;;;;;14.60;8.57;;;4.90;99.90;;;;;;5051941;28;20094;-77
2024/02/26 06:59:50;;;;;;;13.43;8.43;;;4.90;99.90;;;;;;5036514;28;20186;-77
2024/02/26 07:02:17;;;;;;;15.48;8.48;;;5.00;99.90;;;;;;5037918;28;20067;-79
2024/02/26 07:04:43;;;;;;;15.40;8.00;;;5.00;99.90;;;;;;5059443;28;20035;-78
2024/02/26 07:07:10;;;;;;;14.48;7.90;;;5.00;99.90;;;;;;5039002;28;20033;-78
2024/02/26 07:09:36;;;;;;;12.82;8.07;;;5.00;99.90;;;;;;5021557;28;20056;-77
2024/02/26 07:12:02;;;;;;;13.30;7.13;;;5.00;99.90;;;;;;5058985;28;20132;-78
2024/02/26 07:14:28;;;;;;;11.52;7.22;;;5.00;99.90;;;;;;5041778;28;20465;-78
2024/02/26 07:16:53;;;;;;;12.75;7.28;;;5.00;99.90;;;;;;5035370;28;20093;-77
2024/02/26 07:19:19;;;;;;;11.50;7.82;;;5.00;99.90;;;;;;5034840;28;20037;-78
2024/02/26 07:21:45;;;;;;;12.13;7.03;;;5.00;99.90;;;;;;5052639;28;20040;-77
2024/02/26 07:24:10;;;;;;;13.57;6.68;;;5.40;99.90;;;;;;5050400;28;20163;-79
2024/02/26 07:26:36;;;;;;;13.02;7.45;;;5.00;99.90;;;;;;5053996;28;20086;-78
2024/02/26 07:29:02;;;;;;;10.50;6.60;;;5.00;99.90;;;;;;5033906;28;20037;-78
2024/02/26 07:31:27;;;;;;;12.10;7.07;;;5.00;99.90;;;;;;5054636;28;20029;-78
2024/02/26 07:33:53;;;;;;;11.50;6.38;;;5.00;99.90;;;;;;5022577;28;20033;-76
2024/02/26 07:36:19;;;;;;;13.00;6.20;;;5.00;99.90;;;;;;5036135;28;20418;-80
2024/02/26 07:38:45;;;;;;;13.30;6.78;;;5.00;99.90;;;;;;5049236;28;20095;-82
2024/02/26 07:41:11;;;;;;;13.18;6.68;;;5.00;99.90;;;;;;5052404;28;20430;-78
2024/02/26 07:43:37;;;;;;;10.80;6.50;;;5.00;99.90;;;;;;5014046;28;20041;-82
2024/02/26 07:46:03;;;;;;;8.90;5.82;;;5.00;99.90;;;;;;5015685;28;20059;-78
2024/02/26 07:48:29;;;;;;;9.27;6.10;;;5.00;99.90;;;;;;5034886;28;20067;-78
2024/02/26 07:50:54;;;;;;;9.68;5.95;;;5.00;99.90;;;;;;5018074;28;20111;-78
2024/02/26 07:53:20;;;;;;;10.45;6.00;;;5.00;99.90;;;;;;5018025;28;20044;-78
2024/02/26 07:55:45;;;;;;;11.13;5.80;;;5.00;99.90;;;;;;5033742;28;20043;-79
2024/02/26 07:58:11;;;;;;;10.43;5.85;;;5.00;99.90;;;;;;5050854;28;20025;-78
2024/02/26 08:00:37;;;;;;;9.48;5.78;;;5.00;99.90;;;;;;5032483;28;20677;-78
2024/02/26 08:03:03;;;;;;;8.23;5.25;;;5.00;99.90;;;;;;5050877;28;20037;-78
2024/02/26 08:05:28;;;;;;;8.25;5.45;;;5.00;99.90;;;;;;5011276;28;20033;-78
2024/02/26 08:07:54;;;;;;;8.82;5.45;;;5.00;99.90;;;;;;5032850;28;20045;-80
2024/02/26 08:10:20;;;;;;;11.05;5.40;;;5.10;99.90;;;;;;5035292;28;20078;-78
2024/02/26 08:12:46;;;;;;;7.60;5.00;;;5.10;99.90;;;;;;5033552;28;20040;-78
2024/02/26 08:15:12;;;;;;;8.57;5.28;;;5.10;99.90;;;;;;5033065;28;20044;-78
2024/02/26 08:17:37;;;;;;;9.02;5.38;;;5.30;99.90;;;;;;5032282;28;20029;-79
2024/02/26 08:20:04;;;;;;;8.95;5.38;;;5.10;99.90;;;;;;5033352;28;20086;-78
2024/02/26 08:22:29;;;;;;;8.00;4.70;;;5.10;99.90;;;;;;5033725;28;20037;-78
2024/02/26 08:24:55;;;;;;;8.20;5.18;;;5.10;99.90;;;;;;5026650;28;20095;-78
2024/02/26 08:27:21;;;;;;;8.20;4.95;;;5.10;99.90;;;;;;5017473;28;20033;-78
2024/02/26 08:29:46;;;;;;;7.93;5.28;;;5.10;99.90;;;;;;5012827;28;20037;-80
2024/02/26 08:32:12;;;;;;;8.30;5.32;;;5.10;99.90;;;;;;5033596;28;20068;-78
2024/02/26 08:34:37;;;;;;;9.13;5.13;;;5.20;99.90;;;;;;5034004;28;20033;-78
2024/02/26 08:37:03;;;;;;;7.03;4.90;;;5.20;99.90;;;;;;5032532;28;20111;-80
2024/02/26 08:39:29;;;;;;;8.85;5.32;;;5.20;99.90;;;;;;5032770;28;20070;-78
2024/02/26 08:41:54;;;;;;;8.27;5.07;;;5.20;99.90;;;;;;5032920;28;20032;-78
2024/02/26 08:44:20;;;;;;;8.25;5.40;;;5.20;99.90;;;;;;5032334;28;20044;-78
2024/02/26 08:46:46;;;;;;;8.73;5.50;;;5.20;99.90;;;;;;5050835;28;20045;-79
2024/02/26 08:49:12;;;;;;;8.93;5.40;;;5.40;99.90;;;;;;5047768;28;20072;-78
2024/02/26 08:51:46;;;;;;;15.15;5.47;;;5.20;99.90;;;;;;5032965;28;20048;-78
2024/02/26 08:54:12;;;;;;;9.73;5.28;;;5.20;99.90;;;;;;5027748;28;20628;-78
2024/02/26 08:56:37;;;;;;;8.48;5.47;;;5.20;99.90;;;;;;5030844;28;20112;-78
2024/02/26 08:59:03;;;;;;;7.65;5.20;;;5.20;99.90;;;;;;5015249;28;20033;-78
2024/02/26 09:01:31;;;;;;;9.60;5.90;;;5.20;99.90;;;;;;5030369;28;20126;-78
2024/02/26 09:03:56;;;;;;;10.07;5.70;;;5.30;99.90;;;;;;5054915;28;20095;-78
2024/02/26 09:06:22;;;;;;;8.45;6.10;;;5.30;99.90;;;;;;5017085;28;20563;-78
2024/02/26 09:08:48;;;;;;;10.10;6.47;;;5.30;99.90;;;;;;5033258;28;20487;-79
2024/02/26 09:11:13;;;;;;;10.85;7.55;;;5.30;99.90;;;;;;5033197;28;20036;-79
2024/02/26 09:13:39;;;;;;;11.68;7.57;;;5.30;99.90;;;;;;5033271;28;20045;-78
2024/02/26 09:16:06;;;;;;;14.52;9.10;;;5.30;99.90;;;;;;5033207;28;20068;-78
2024/02/26 09:18:31;;;;;;;14.85;10.18;;;5.30;99.90;;;;;;5031496;28;20052;-78
2024/02/26 09:20:57;;;;;;;14.63;10.50;;;5.30;99.90;;;;;;5032637;28;20045;-78
2024/02/26 09:23:24;;;;;;;9.63;6.57;;;5.40;99.90;;;;;;5051023;28;20049;-79
2024/02/26 09:25:49;;;;;;;9.85;5.90;;;5.40;99.90;;;;;;5037819;28;20519;-78
2024/02/26 09:28:17;;;;;;;11.18;6.18;;;5.40;99.90;;;;;;5050568;28;20079;-78
2024/02/26 09:30:45;;;;;;;9.13;6.15;;;5.90;99.90;;;;;;5015925;28;20468;-78
2024/02/26 09:33:11;;;;;;;8.20;5.97;;;5.40;99.90;;;;;;5032884;28;20033;-78
2024/02/26 09:35:37;;;;;;;10.23;6.03;;;5.40;99.90;;;;;;5050099;28;20037;-78
2024/02/26 09:38:03;;;;;;;10.52;5.82;;;5.40;99.90;;;;;;5050131;28;20025;-78
2024/02/26 09:40:28;;;;;;;8.23;5.97;;;5.40;99.90;;;;;;5041208;28;20036;-77
2024/02/26 09:43:00;;;;;;;9.55;6.45;;;5.40;99.90;;;;;;5032263;28;20086;-77
2024/02/26 09:45:27;;;;;;;8.40;5.93;;;5.40;99.90;;;;;;5032258;28;20053;-77
2024/02/26 09:47:55;;;;;;;11.05;6.70;;;5.50;99.90;;;;;;5026789;28;20041;-77
2024/02/26 09:50:26;;;;;;;9.23;6.15;;;5.50;99.90;;;;;;5079168;22;20029;-77
2024/02/26 09:52:55;;;;;;;8.88;6.28;;;5.50;99.90;;;;;;5055386;28;20064;-78
2024/02/26 09:55:23;;;;;;;9.98;6.50;;;5.50;99.90;;;;;;5032266;28;20117;-78
2024/02/26 09:57:57;;;;;;;13.88;6.78;;;5.50;99.90;;;;;;5044218;28;20032;-79
2024/02/26 10:00:32;;;;;;;9.95;7.22;;;5.50;99.90;;;;;;5027973;28;20506;-78
2024/02/26 10:03:09;;;;;;;9.75;6.28;;;5.60;99.90;;;;;;5010892;28;20048;-78
2024/02/26 10:05:50;;;;;;;10.20;5.95;;;5.60;99.90;;;;;;5033021;28;20049;-77
2024/02/26 10:08:22;;;;;;;10.23;5.80;;;5.70;99.90;;;;;;5056001;28;20526;-79
2024/02/26 10:10:53;;;;;;;9.75;6.28;;;5.70;99.90;;;;;;5019403;28;20036;-78
2024/02/26 10:13:22;;;;;;;8.32;5.70;;;5.70;99.90;;;;;;5035123;28;20045;-80
2024/02/26 10:16:03;;;;;;;9.32;5.97;;;5.70;99.90;;;;;;5036274;28;20124;-78
2024/02/26 10:18:53;;;;;;;8.98;5.70;;;5.70;99.90;;;;;;5019596;28;20179;-79
2024/02/26 10:21:26;;;;;;;7.95;5.18;;;5.80;99.90;;;;;;5028963;28;20036;-78
2024/02/26 10:23:54;;;;;;;8.02;5.32;;;5.80;99.90;;;;;;5018994;28;20075;-79
2024/02/26 10:26:21;;;;;;;9.88;6.07;;;5.80;99.90;;;;;;5041095;28;20076;-78
2024/02/26 10:28:48;;;;;;;8.75;5.95;;;5.80;99.90;;;;;;5021794;28;20048;-78
2024/02/26 10:31:14;;;;;;;9.25;5.50;;;5.80;99.90;;;;;;5052283;28;20033;-79
2024/02/26 10:33:46;;;;;;;8.65;5.70;;;6.40;99.90;;;;;;5033837;28;20037;-79
2024/02/26 10:36:12;;;;;;;8.63;5.50;;;6.90;99.90;;;;;;5026621;28;20067;-80
2024/02/26 10:38:38;;;;;;;9.23;5.47;;;6.70;99.90;;;;;;5035975;28;20503;-79
2024/02/26 10:41:05;;;;;;;10.65;6.70;;;6.90;99.90;;;;;;5036494;28;20037;-78
2024/02/26 10:43:31;;;;;;;8.85;5.63;;;6.20;99.90;;;;;;5012012;28;20037;-78
2024/02/26 10:45:57;;;;;;;10.13;6.10;;;6.40;99.90;;;;;;5016510;28;20064;-78
2024/02/26 10:48:24;;;;;;;9.95;6.07;;;7.40;99.90;;;;;;5037986;28;20119;-78
2024/02/26 10:50:50;;;;;;;11.18;6.35;;;6.10;99.90;;;;;;5021995;28;20033;-78
2024/02/26 10:53:26;;;;;;;7.75;5.30;;;6.40;99.90;;;;;;5054483;28;20063;-77
2024/02/26 10:55:57;;;;;;;10.23;5.85;;;6.20;99.90;;;;;;5014572;28;20064;-78
2024/02/26 10:58:24;;;;;;;10.38;6.13;;;7.20;99.90;;;;;;5055202;28;20029;-77
2024/02/26 11:00:50;;;;;;;8.73;5.53;;;7.00;99.90;;;;;;5017173;28;20086;-78
2024/02/26 11:03:22;;;;;;;9.48;6.28;;;7.30;99.90;;;;;;5055067;28;20045;-79
2024/02/26 11:05:51;;;;;;;9.43;6.30;;;6.60;99.90;;;;;;5054449;28;20037;-78
2024/02/26 11:08:21;;;;;;;9.23;6.25;;;6.20;99.90;;;;;;5052664;28;20267;-79
2024/02/26 11:10:48;;;;;;;9.07;5.82;;;6.20;99.90;;;;;;5027016;28;20045;-79
2024/02/26 11:13:18;;;;;;;10.07;6.35;;;6.20;99.90;;;;;;5035191;28;20060;-79
2024/02/26 11:15:47;;;;;;;11.65;5.90;;;6.80;99.90;;;;;;5022627;28;20034;-78
2024/02/26 11:18:14;;;;;;;9.20;5.93;;;7.30;99.90;;;;;;5055574;28;20128;-78
2024/02/26 11:20:41;;;;;;;8.77;6.20;;;7.50;99.90;;;;;;5017804;28;20097;-79
2024/02/26 11:23:08;;;;;;;12.32;6.20;;;7.30;99.90;;;;;;5053876;28;20407;-78
2024/02/26 11:25:35;;;;;;;12.25;6.50;;;7.30;99.90;;;;;;5023140;28;20041;-78
2024/02/26 11:28:04;;;;;;;10.35;6.60;;;6.40;99.90;;;;;;5041729;28;20053;-78
2024/02/26 11:30:35;;;;;;;9.23;6.43;;;6.30;99.90;;;;;;5035733;28;20518;-78
2024/02/26 11:33:01;;;;;;;10.20;6.18;;;7.30;99.90;;;;;;5019672;28;20116;-78
2024/02/26 11:35:31;;;;;;;8.63;5.90;;;7.30;99.90;;;;;;5037950;28;20036;-78
2024/02/26 11:37:58;;;;;;;9.07;5.93;;;7.40;99.90;;;;;;5044150;28;20029;-79
2024/02/26 11:40:27;;;;;;;9.63;6.10;;;7.30;99.90;;;;;;5059808;28;20119;-78
2024/02/26 11:42:53;;;;;;;10.68;6.25;;;7.20;99.90;;;;;;5059854;28;20124;-78
2024/02/26 11:45:42;;;;;;;10.02;6.10;;;6.70;99.90;;;;;;5024412;28;20087;-79
2024/02/26 11:48:22;;;;;;;9.73;5.93;;;6.40;99.90;;;;;;5023969;28;20104;-79
2024/02/26 11:50:53;;;;;;;9.02;6.07;;;6.40;99.90;;;;;;5052879;28;20033;-79
2024/02/26 11:53:35;;;;;;;10.10;6.20;;;6.40;99.90;;;;;;5030434;28;20055;-78
2024/02/26 11:56:16;;;;;;;11.20;5.95;;;6.40;99.90;;;;;;5014897;28;20052;-78
2024/02/26 11:58:43;;;;;;;8.52;5.65;;;6.40;99.90;;;;;;5052952;28;20040;-77
2024/02/26 12:01:36;;;;;;;8.82;5.85;;;6.40;99.90;;;;;;5018310;28;20079;-78
2024/02/26 12:04:05;;;;;;;9.02;5.78;;;6.40;99.90;;;;;;5017246;28;20064;-80
2024/02/26 12:06:31;;;;;;;10.13;5.70;;;7.20;99.90;;;;;;5033842;28;20033;-79
2024/02/26 12:08:57;;;;;;;11.85;7.35;;;7.40;99.90;;;;;;5021330;28;20040;-80
2024/02/26 12:11:27;;;;;;;10.77;6.97;;;6.50;99.90;;;;;;5018723;28;20124;-80
2024/02/26 12:13:52;;;;;;;12.27;7.68;;;7.50;99.90;;;;;;5017338;28;20037;-79
2024/02/26 12:16:44;;;;;;;12.20;7.30;;;6.50;99.90;;;;;;5032244;28;20036;-79
2024/02/26 12:19:11;;;;;;;11.93;7.07;;;6.50;99.90;;;;;;5022557;28;20041;-79
2024/02/26 12:21:37;;;;;;;11.57;6.68;;;7.80;99.90;;;;;;5040484;28;20116;-78
2024/02/26 12:24:12;;;;;;;11.55;6.90;;;6.50;99.90;;;;;;5031264;28;20041;-79
2024/02/26 12:26:42;;;;;;;10.82;5.75;;;5.40;99.90;;;;;;5036137;28;20052;-78
2024/02/26 12:29:09;;;;;;;8.50;6.03;;;6.40;99.90;;;;;;5047474;28;20103;-79
2024/02/26 12:31:38;;;;;;;16.45;8.80;;;6.40;99.90;;;;;;5036423;28;20025;-79
2024/02/26 12:34:05;;;;;;;9.70;5.93;;;6.40;99.90;;;;;;5020374;28;20041;-79
2024/02/26 12:36:34;;;;;;;7.85;5.18;;;7.50;99.90;;;;;;5017018;28;20569;-78
2024/02/26 12:39:02;;;;;;;8.60;5.43;;;7.80;99.90;;;;;;5033133;28;20037;-79
2024/02/26 12:41:29;;;;;;;7.57;5.32;;;7.30;99.90;;;;;;5031341;28;20044;-83